sensor_id;sensor_type;location;lat;lon;timestamp;temperature;humidity
18948;DHT22;9607;51.600;7.558;2023-04-25T00:00:47;6.00;99.90
18948;DHT22;9607;51.600;7.558;2023-04-25T00:03:13;6.00;99.90
18948;DHT22;9607;51.600;7.558;2023-04-25T00:05:42;6.00;99.90
18948;DHT22;9607;51.600;7.558;2023-04-25T00:08:11;6.00;99.90
18948;DHT22;9607;51.600;7.558;2023-04-25T00:10:37;6.10;99.90
18948;DHT22;9607;51.600;7.558;2023-04-25T00:13:04;6.10;99.90
18948;DHT22;9607;51.600;7.558;2023-04-25T00:15:31;6.10;99.90
18948;DHT22;9607;51.600;7.558;2023-04-25T00:17:58;6.20;99.90
18948;DHT22;9607;51.600;7.558;2023-04-25T00:20:25;6.30;99.90
18948;DHT22;9607;51.600;7.558;2023-04-25T00:22:52;6.30;99.90
18948;DHT22;9607;51.600;7.558;2023-04-25T00:25:20;6.30;99.90
18948;DHT22;9607;51.600;7.558;2023-04-25T00:27:47;6.30;99.90
18948;DHT22;9607;51.600;7.558;2023-04-25T00:30:14;6.40;99.90
18948;DHT22;9607;51.600;7.558;2023-04-25T00:32:42;6.50;99.90
18948;DHT22;9607;51.600;7.558;2023-04-25T00:35:09;6.50;99.90
18948;DHT22;9607;51.600;7.558;2023-04-25T00:37:36;6.60;99.90
18948;DHT22;9607;51.600;7.558;2023-04-25T00:40:05;6.70;99.90
18948;DHT22;9607;51.600;7.558;2023-04-25T00:42:35;6.60;99.90
18948;DHT22;9607;51.600;7.558;2023-04-25T00:45:05;6.70;99.90
18948;DHT22;9607;51.600;7.558;2023-04-25T00:47:33;6.70;99.90
18948;DHT22;9607;51.600;7.558;2023-04-25T00:50:00;6.80;99.90
18948;DHT22;9607;51.600;7.558;2023-04-25T00:52:27;6.80;99.90
18948;DHT22;9607;51.600;7.558;2023-04-25T00:54:53;6.80;99.90
18948;DHT22;9607;51.600;7.558;2023-04-25T00:57:20;6.90;99.90
18948;DHT22;9607;51.600;7.558;2023-04-25T00:59:51;6.90;99.90
18948;DHT22;9607;51.600;7.558;2023-04-25T01:02:18;6.90;99.90
18948;DHT22;9607;51.600;7.558;2023-04-25T01:04:47;6.90;99.90
18948;DHT22;9607;51.600;7.558;2023-04-25T01:07:14;6.90;99.90
18948;DHT22;9607;51.600;7.558;2023-04-25T01:09:42;7.00;99.90
18948;DHT22;9607;51.600;7.558;2023-04-25T01:12:09;6.90;99.90
18948;DHT22;9607;51.600;7.558;2023-04-25T01:14:36;7.00;99.90
18948;DHT22;9607;51.600;7.558;2023-04-25T01:17:04;7.00;99.90
18948;DHT22;9607;51.600;7.558;2023-04-25T01:19:33;7.00;99.90
18948;DHT22;9607;51.600;7.558;2023-04-25T01:22:01;7.00;99.90
18948;DHT22;9607;51.600;7.558;2023-04-25T01:24:29;7.00;99.90
18948;DHT22;9607;51.600;7.558;2023-04-25T01:26:56;7.00;99.90
18948;DHT22;9607;51.600;7.558;2023-04-25T01:29:24;7.00;99.90
18948;DHT22;9607;51.600;7.558;2023-04-25T01:31:51;7.10;99.90
18948;DHT22;9607;51.600;7.558;2023-04-25T01:34:18;7.10;99.90
18948;DHT22;9607;51.600;7.558;2023-04-25T01:36:47;7.10;99.90
18948;DHT22;9607;51.600;7.558;2023-04-25T01:39:15;7.10;99.90
18948;DHT22;9607;51.600;7.558;2023-04-25T01:41:43;7.00;99.90
18948;DHT22;9607;51.600;7.558;2023-04-25T01:44:10;7.00;99.90
18948;DHT22;9607;51.600;7.558;2023-04-25T01:46:37;7.10;99.90
18948;DHT22;9607;51.600;7.558;2023-04-25T01:49:04;7.00;99.90
18948;DHT22;9607;51.600;7.558;2023-04-25T01:51:30;7.00;99.90
18948;DHT22;9607;51.600;7.558;2023-04-25T01:53:58;7.00;99.90
18948;DHT22;9607;51.600;7.558;2023-04-25T01:56:30;7.10;99.90
18948;DHT22;9607;51.600;7.558;2023-04-25T01:58:57;7.10;99.90
18948;DHT22;9607;51.600;7.558;2023-04-25T02:01:24;7.00;99.90
18948;DHT22;9607;51.600;7.558;2023-04-25T02:03:51;7.00;99.90
18948;DHT22;9607;51.600;7.558;2023-04-25T02:06:18;6.90;99.90
18948;DHT22;9607;51.600;7.558;2023-04-25T02:08:45;6.80;99.90
18948;DHT22;9607;51.600;7.558;2023-04-25T02:11:12;6.80;99.90
18948;DHT22;9607;51.600;7.558;2023-04-25T02:13:40;6.70;99.90
18948;DHT22;9607;51.600;7.558;2023-04-25T02:16:06;6.70;99.90
18948;DHT22;9607;51.600;7.558;2023-04-25T02:18:33;6.70;99.90
18948;DHT22;9607;51.600;7.558;2023-04-25T02:21:02;6.70;99.90
18948;DHT22;9607;51.600;7.558;2023-04-25T02:23:29;6.70;99.90
18948;DHT22;9607;51.600;7.558;2023-04-25T02:25:56;6.70;99.90
18948;DHT22;9607;51.600;7.558;2023-04-25T02:28:23;6.70;99.90
18948;DHT22;9607;51.600;7.558;2023-04-25T02:30:52;6.70;99.90
18948;DHT22;9607;51.600;7.558;2023-04-25T02:33:19;6.70;99.90
18948;DHT22;9607;51.600;7.558;2023-04-25T02:35:46;6.70;99.90
18948;DHT22;9607;51.600;7.558;2023-04-25T02:38:13;6.70;99.90
18948;DHT22;9607;51.600;7.558;2023-04-25T02:40:40;6.70;99.90
18948;DHT22;9607;51.600;7.558;2023-04-25T02:43:07;6.70;99.90
18948;DHT22;9607;51.600;7.558;2023-04-25T02:45:34;6.70;99.90
18948;DHT22;9607;51.600;7.558;2023-04-25T02:48:03;6.60;99.90
18948;DHT22;9607;51.600;7.558;2023-04-25T02:50:30;6.70;99.90
18948;DHT22;9607;51.600;7.558;2023-04-25T02:52:57;6.70;99.90
18948;DHT22;9607;51.600;7.558;2023-04-25T02:55:23;6.60;99.90
18948;DHT22;9607;51.600;7.558;2023-04-25T02:57:51;6.60;99.90
18948;DHT22;9607;51.600;7.558;2023-04-25T03:00:20;6.60;99.90
18948;DHT22;9607;51.600;7.558;2023-04-25T03:02:47;6.60;99.90
18948;DHT22;9607;51.600;7.558;2023-04-25T03:05:16;6.60;99.90
18948;DHT22;9607;51.600;7.558;2023-04-25T03:07:43;6.60;99.90
18948;DHT22;9607;51.600;7.558;2023-04-25T03:10:11;6.60;99.90
18948;DHT22;9607;51.600;7.558;2023-04-25T03:12:38;6.60;99.90
18948;DHT22;9607;51.600;7.558;2023-04-25T03:15:06;6.60;99.90
18948;DHT22;9607;51.600;7.558;2023-04-25T03:17:34;6.60;99.90
18948;DHT22;9607;51.600;7.558;2023-04-25T03:20:02;6.60;99.90
18948;DHT22;9607;51.600;7.558;2023-04-25T03:22:32;6.50;99.90
18948;DHT22;9607;51.600;7.558;2023-04-25T03:24:59;6.50;99.90
18948;DHT22;9607;51.600;7.558;2023-04-25T03:27:25;6.60;99.90
18948;DHT22;9607;51.600;7.558;2023-04-25T03:29:52;6.50;99.90
18948;DHT22;9607;51.600;7.558;2023-04-25T03:32:19;6.50;99.90
18948;DHT22;9607;51.600;7.558;2023-04-25T03:34:47;6.50;99.90
18948;DHT22;9607;51.600;7.558;2023-04-25T03:37:15;6.50;99.90
18948;DHT22;9607;51.600;7.558;2023-04-25T03:39:43;6.40;99.90
18948;DHT22;9607;51.600;7.558;2023-04-25T03:42:10;6.40;99.90
18948;DHT22;9607;51.600;7.558;2023-04-25T03:44:36;6.40;99.90
18948;DHT22;9607;51.600;7.558;2023-04-25T03:47:03;6.40;99.90
18948;DHT22;9607;51.600;7.558;2023-04-25T03:49:32;6.40;99.90
18948;DHT22;9607;51.600;7.558;2023-04-25T03:51:59;6.40;99.90
18948;DHT22;9607;51.600;7.558;2023-04-25T03:54:25;6.40;99.90
18948;DHT22;9607;51.600;7.558;2023-04-25T03:56:54;6.30;99.90
18948;DHT22;9607;51.600;7.558;2023-04-25T03:59:20;6.30;99.90
18948;DHT22;9607;51.600;7.558;2023-04-25T04:01:48;6.30;99.90
18948;DHT22;9607;51.600;7.558;2023-04-25T04:04:15;6.40;99.90
18948;DHT22;9607;51.600;7.558;2023-04-25T04:06:41;6.40;99.90
18948;DHT22;9607;51.600;7.558;2023-04-25T04:09:08;6.40;99.90
18948;DHT22;9607;51.600;7.558;2023-04-25T04:11:36;6.40;99.90
18948;DHT22;9607;51.600;7.558;2023-04-25T04:14:05;6.40;99.90
18948;DHT22;9607;51.600;7.558;2023-04-25T04:16:32;6.40;99.90
18948;DHT22;9607;51.600;7.558;2023-04-25T04:18:59;6.40;99.90
18948;DHT22;9607;51.600;7.558;2023-04-25T04:21:25;6.40;99.90
18948;DHT22;9607;51.600;7.558;2023-04-25T04:23:53;6.40;99.90
18948;DHT22;9607;51.600;7.558;2023-04-25T04:26:20;6.30;99.90
18948;DHT22;9607;51.600;7.558;2023-04-25T04:28:49;6.30;99.90
18948;DHT22;9607;51.600;7.558;2023-04-25T04:31:18;6.30;99.90
18948;DHT22;9607;51.600;7.558;2023-04-25T04:33:45;6.30;99.90
18948;DHT22;9607;51.600;7.558;2023-04-25T04:36:13;6.30;99.90
18948;DHT22;9607;51.600;7.558;2023-04-25T04:38:41;6.30;99.90
18948;DHT22;9607;51.600;7.558;2023-04-25T04:41:08;6.30;99.90
18948;DHT22;9607;51.600;7.558;2023-04-25T04:43:36;6.30;99.90
18948;DHT22;9607;51.600;7.558;2023-04-25T04:46:05;6.30;99.90
18948;DHT22;9607;51.600;7.558;2023-04-25T04:48:33;6.30;99.90
18948;DHT22;9607;51.600;7.558;2023-04-25T04:51:00;6.30;99.90
18948;DHT22;9607;51.600;7.558;2023-04-25T04:53:27;6.30;99.90
18948;DHT22;9607;51.600;7.558;2023-04-25T04:55:54;6.30;99.90
18948;DHT22;9607;51.600;7.558;2023-04-25T04:58:21;6.40;99.90
18948;DHT22;9607;51.600;7.558;2023-04-25T05:00:48;6.40;99.90
18948;DHT22;9607;51.600;7.558;2023-04-25T05:03:15;6.30;99.90
18948;DHT22;9607;51.600;7.558;2023-04-25T05:05:43;6.40;99.90
18948;DHT22;9607;51.600;7.558;2023-04-25T05:08:11;6.40;99.90
18948;DHT22;9607;51.600;7.558;2023-04-25T05:10:38;6.40;99.90
18948;DHT22;9607;51.600;7.558;2023-04-25T05:13:05;6.40;99.90
18948;DHT22;9607;51.600;7.558;2023-04-25T05:15:32;6.40;99.90
18948;DHT22;9607;51.600;7.558;2023-04-25T05:17:59;6.30;99.90
18948;DHT22;9607;51.600;7.558;2023-04-25T05:20:26;6.30;99.90
18948;DHT22;9607;51.600;7.558;2023-04-25T05:22:55;6.30;99.90
18948;DHT22;9607;51.600;7.558;2023-04-25T05:25:21;6.30;99.90
18948;DHT22;9607;51.600;7.558;2023-04-25T05:27:48;6.40;99.90
18948;DHT22;9607;51.600;7.558;2023-04-25T05:30:16;6.40;99.90
18948;DHT22;9607;51.600;7.558;2023-04-25T05:32:43;6.40;99.90
18948;DHT22;9607;51.600;7.558;2023-04-25T05:35:10;6.30;99.90
18948;DHT22;9607;51.600;7.558;2023-04-25T05:37:37;6.30;99.90
18948;DHT22;9607;51.600;7.558;2023-04-25T05:40:07;6.20;99.90
18948;DHT22;9607;51.600;7.558;2023-04-25T05:42:35;6.30;99.90
18948;DHT22;9607;51.600;7.558;2023-04-25T05:45:02;6.30;99.90
18948;DHT22;9607;51.600;7.558;2023-04-25T05:47:29;6.30;99.90
18948;DHT22;9607;51.600;7.558;2023-04-25T05:49:56;6.40;99.90
18948;DHT22;9607;51.600;7.558;2023-04-25T05:52:23;6.50;99.90
18948;DHT22;9607;51.600;7.558;2023-04-25T05:54:51;6.70;99.90
18948;DHT22;9607;51.600;7.558;2023-04-25T05:57:23;6.60;99.90
18948;DHT22;9607;51.600;7.558;2023-04-25T05:59:51;6.80;99.90
18948;DHT22;9607;51.600;7.558;2023-04-25T06:02:18;6.70;99.90
18948;DHT22;9607;51.600;7.558;2023-04-25T06:04:45;6.70;99.90
18948;DHT22;9607;51.600;7.558;2023-04-25T06:07:12;6.80;99.90
18948;DHT22;9607;51.600;7.558;2023-04-25T06:09:39;6.80;99.90
18948;DHT22;9607;51.600;7.558;2023-04-25T06:12:06;6.80;99.90
18948;DHT22;9607;51.600;7.558;2023-04-25T06:14:35;6.80;99.90
18948;DHT22;9607;51.600;7.558;2023-04-25T06:17:03;6.80;99.90
18948;DHT22;9607;51.600;7.558;2023-04-25T06:19:34;6.80;99.90
18948;DHT22;9607;51.600;7.558;2023-04-25T06:22:01;6.80;99.90
18948;DHT22;9607;51.600;7.558;2023-04-25T06:24:28;6.80;99.90
18948;DHT22;9607;51.600;7.558;2023-04-25T06:26:55;6.80;99.90
18948;DHT22;9607;51.600;7.558;2023-04-25T06:29:21;6.80;99.90
18948;DHT22;9607;51.600;7.558;2023-04-25T06:31:50;6.80;99.90
18948;DHT22;9607;51.600;7.558;2023-04-25T06:34:17;6.80;99.90
18948;DHT22;9607;51.600;7.558;2023-04-25T06:36:44;6.80;99.90
18948;DHT22;9607;51.600;7.558;2023-04-25T06:39:11;6.80;99.90
18948;DHT22;9607;51.600;7.558;2023-04-25T06:41:37;6.90;99.90
18948;DHT22;9607;51.600;7.558;2023-04-25T06:44:04;7.00;99.90
18948;DHT22;9607;51.600;7.558;2023-04-25T06:46:31;7.20;99.90
18948;DHT22;9607;51.600;7.558;2023-04-25T06:48:59;7.30;99.90
18948;DHT22;9607;51.600;7.558;2023-04-25T06:51:26;7.30;99.90
18948;DHT22;9607;51.600;7.558;2023-04-25T06:53:55;7.40;99.90
18948;DHT22;9607;51.600;7.558;2023-04-25T06:56:21;7.50;99.90
18948;DHT22;9607;51.600;7.558;2023-04-25T06:58:48;7.50;99.90
18948;DHT22;9607;51.600;7.558;2023-04-25T07:01:15;7.60;99.90
18948;DHT22;9607;51.600;7.558;2023-04-25T07:03:42;7.70;99.90
18948;DHT22;9607;51.600;7.558;2023-04-25T07:06:10;7.70;99.90
18948;DHT22;9607;51.600;7.558;2023-04-25T07:08:37;7.80;99.90
18948;DHT22;9607;51.600;7.558;2023-04-25T07:11:04;7.90;99.90
18948;DHT22;9607;51.600;7.558;2023-04-25T07:13:31;8.00;99.90
18948;DHT22;9607;51.600;7.558;2023-04-25T07:15:57;8.20;99.90
18948;DHT22;9607;51.600;7.558;2023-04-25T07:18:24;8.30;99.90
18948;DHT22;9607;51.600;7.558;2023-04-25T07:20:51;8.40;99.90
18948;DHT22;9607;51.600;7.558;2023-04-25T07:23:20;8.50;99.90
18948;DHT22;9607;51.600;7.558;2023-04-25T07:25:46;8.50;99.90
18948;DHT22;9607;51.600;7.558;2023-04-25T07:28:13;8.60;99.90
18948;DHT22;9607;51.600;7.558;2023-04-25T07:30:40;8.60;99.90
18948;DHT22;9607;51.600;7.558;2023-04-25T07:33:07;8.60;99.90
18948;DHT22;9607;51.600;7.558;2023-04-25T07:35:34;8.60;99.90
18948;DHT22;9607;51.600;7.558;2023-04-25T07:38:01;8.60;99.90
18948;DHT22;9607;51.600;7.558;2023-04-25T07:40:29;8.60;99.90
18948;DHT22;9607;51.600;7.558;2023-04-25T07:42:56;8.60;99.90
18948;DHT22;9607;51.600;7.558;2023-04-25T07:45:23;8.70;99.90
18948;DHT22;9607;51.600;7.558;2023-04-25T07:47:50;8.70;99.90
18948;DHT22;9607;51.600;7.558;2023-04-25T07:50:17;8.70;99.90
18948;DHT22;9607;51.600;7.558;2023-04-25T07:52:45;8.80;99.90
18948;DHT22;9607;51.600;7.558;2023-04-25T07:55:12;8.90;99.90
18948;DHT22;9607;51.600;7.558;2023-04-25T07:57:40;9.00;99.90
18948;DHT22;9607;51.600;7.558;2023-04-25T08:00:08;9.10;99.90
18948;DHT22;9607;51.600;7.558;2023-04-25T08:02:37;9.10;99.90
18948;DHT22;9607;51.600;7.558;2023-04-25T08:05:04;9.20;99.90
18948;DHT22;9607;51.600;7.558;2023-04-25T08:07:33;9.30;99.90
18948;DHT22;9607;51.600;7.558;2023-04-25T08:10:00;9.40;99.90
18948;DHT22;9607;51.600;7.558;2023-04-25T08:12:27;9.50;99.90
18948;DHT22;9607;51.600;7.558;2023-04-25T08:14:55;9.40;99.90
18948;DHT22;9607;51.600;7.558;2023-04-25T08:17:22;9.30;99.90
18948;DHT22;9607;51.600;7.558;2023-04-25T08:19:49;9.20;99.90
18948;DHT22;9607;51.600;7.558;2023-04-25T08:22:16;9.10;99.90
18948;DHT22;9607;51.600;7.558;2023-04-25T08:24:43;9.10;99.90
18948;DHT22;9607;51.600;7.558;2023-04-25T08:27:09;9.10;99.90
18948;DHT22;9607;51.600;7.558;2023-04-25T08:29:36;9.20;99.90
18948;DHT22;9607;51.600;7.558;2023-04-25T08:32:05;9.30;99.90
18948;DHT22;9607;51.600;7.558;2023-04-25T08:34:31;9.30;99.90
18948;DHT22;9607;51.600;7.558;2023-04-25T08:36:59;9.50;99.90
18948;DHT22;9607;51.600;7.558;2023-04-25T08:39:25;9.60;99.90
18948;DHT22;9607;51.600;7.558;2023-04-25T08:41:53;9.70;99.90
18948;DHT22;9607;51.600;7.558;2023-04-25T08:44:20;9.70;99.90
18948;DHT22;9607;51.600;7.558;2023-04-25T08:46:47;9.80;99.90
18948;DHT22;9607;51.600;7.558;2023-04-25T08:49:17;9.70;99.90
18948;DHT22;9607;51.600;7.558;2023-04-25T08:51:46;9.70;99.90
18948;DHT22;9607;51.600;7.558;2023-04-25T08:54:14;9.70;99.90
18948;DHT22;9607;51.600;7.558;2023-04-25T08:56:44;9.90;99.90
18948;DHT22;9607;51.600;7.558;2023-04-25T08:59:12;10.20;99.90
18948;DHT22;9607;51.600;7.558;2023-04-25T09:01:39;10.30;99.90
18948;DHT22;9607;51.600;7.558;2023-04-25T09:04:06;10.40;99.90
18948;DHT22;9607;51.600;7.558;2023-04-25T09:06:35;10.50;99.90
18948;DHT22;9607;51.600;7.558;2023-04-25T09:09:03;10.40;99.90
18948;DHT22;9607;51.600;7.558;2023-04-25T09:11:31;10.40;99.90
18948;DHT22;9607;51.600;7.558;2023-04-25T09:14:15;10.30;99.90
18948;DHT22;9607;51.600;7.558;2023-04-25T09:16:59;10.30;99.90
18948;DHT22;9607;51.600;7.558;2023-04-25T09:19:28;10.30;99.90
18948;DHT22;9607;51.600;7.558;2023-04-25T09:21:58;10.20;99.60
18948;DHT22;9607;51.600;7.558;2023-04-25T09:24:33;10.20;99.90
18948;DHT22;9607;51.600;7.558;2023-04-25T09:27:03;10.20;99.90
18948;DHT22;9607;51.600;7.558;2023-04-25T09:29:31;9.90;99.90
18948;DHT22;9607;51.600;7.558;2023-04-25T09:32:25;9.80;99.90
18948;DHT22;9607;51.600;7.558;2023-04-25T09:34:54;9.80;99.90
18948;DHT22;9607;51.600;7.558;2023-04-25T09:37:24;9.90;99.90
18948;DHT22;9607;51.600;7.558;2023-04-25T09:39:56;9.90;99.90
18948;DHT22;9607;51.600;7.558;2023-04-25T09:42:25;10.10;99.90
18948;DHT22;9607;51.600;7.558;2023-04-25T09:44:55;10.30;99.90
18948;DHT22;9607;51.600;7.558;2023-04-25T09:47:23;10.40;99.90
18948;DHT22;9607;51.600;7.558;2023-04-25T09:49:52;10.50;99.90
18948;DHT22;9607;51.600;7.558;2023-04-25T09:52:21;10.70;99.90
18948;DHT22;9607;51.600;7.558;2023-04-25T09:54:50;10.80;99.90
18948;DHT22;9607;51.600;7.558;2023-04-25T09:57:19;10.80;96.90
18948;DHT22;9607;51.600;7.558;2023-04-25T09:59:48;10.70;95.90
18948;DHT22;9607;51.600;7.558;2023-04-25T10:02:17;10.60;96.10
18948;DHT22;9607;51.600;7.558;2023-04-25T10:04:47;10.70;97.00
18948;DHT22;9607;51.600;7.558;2023-04-25T10:07:14;10.70;96.30
18948;DHT22;9607;51.600;7.558;2023-04-25T10:09:41;10.60;95.70
18948;DHT22;9607;51.600;7.558;2023-04-25T10:12:12;10.40;97.20
18948;DHT22;9607;51.600;7.558;2023-04-25T10:14:39;10.70;97.40
18948;DHT22;9607;51.600;7.558;2023-04-25T10:17:07;10.90;95.50
18948;DHT22;9607;51.600;7.558;2023-04-25T10:19:37;11.10;93.40
18948;DHT22;9607;51.600;7.558;2023-04-25T10:22:07;11.40;93.90
18948;DHT22;9607;51.600;7.558;2023-04-25T10:24:35;11.40;92.90
18948;DHT22;9607;51.600;7.558;2023-04-25T10:27:02;11.50;95.10
18948;DHT22;9607;51.600;7.558;2023-04-25T10:29:31;11.60;92.20
18948;DHT22;9607;51.600;7.558;2023-04-25T10:31:57;11.70;88.70
18948;DHT22;9607;51.600;7.558;2023-04-25T10:34:37;11.50;88.80
18948;DHT22;9607;51.600;7.558;2023-04-25T10:37:05;11.60;88.90
18948;DHT22;9607;51.600;7.558;2023-04-25T10:39:34;11.70;85.80
18948;DHT22;9607;51.600;7.558;2023-04-25T10:42:03;11.50;87.80
18948;DHT22;9607;51.600;7.558;2023-04-25T10:44:32;11.20;84.30
18948;DHT22;9607;51.600;7.558;2023-04-25T10:47:01;11.00;87.90
18948;DHT22;9607;51.600;7.558;2023-04-25T10:49:32;10.70;90.80
18948;DHT22;9607;51.600;7.558;2023-04-25T10:52:19;10.50;91.20
18948;DHT22;9607;51.600;7.558;2023-04-25T10:54:52;10.20;92.80
18948;DHT22;9607;51.600;7.558;2023-04-25T10:57:30;10.00;94.80
18948;DHT22;9607;51.600;7.558;2023-04-25T11:00:06;9.90;95.60
18948;DHT22;9607;51.600;7.558;2023-04-25T11:02:37;9.80;95.50
18948;DHT22;9607;51.600;7.558;2023-04-25T11:05:05;9.60;95.70
18948;DHT22;9607;51.600;7.558;2023-04-25T11:07:43;9.50;96.30
18948;DHT22;9607;51.600;7.558;2023-04-25T11:10:10;9.40;99.90
18948;DHT22;9607;51.600;7.558;2023-04-25T11:12:37;9.30;99.90
18948;DHT22;9607;51.600;7.558;2023-04-25T11:15:07;9.10;99.90
18948;DHT22;9607;51.600;7.558;2023-04-25T11:17:35;9.00;99.90
18948;DHT22;9607;51.600;7.558;2023-04-25T11:20:03;8.90;99.90
18948;DHT22;9607;51.600;7.558;2023-04-25T11:22:34;8.70;99.90
18948;DHT22;9607;51.600;7.558;2023-04-25T11:25:05;8.60;99.90
18948;DHT22;9607;51.600;7.558;2023-04-25T11:27:32;8.50;99.90
18948;DHT22;9607;51.600;7.558;2023-04-25T11:30:11;8.50;99.90
18948;DHT22;9607;51.600;7.558;2023-04-25T11:32:39;8.70;99.90
18948;DHT22;9607;51.600;7.558;2023-04-25T11:35:07;8.90;99.90
18948;DHT22;9607;51.600;7.558;2023-04-25T11:37:34;9.20;95.20
18948;DHT22;9607;51.600;7.558;2023-04-25T11:40:03;9.40;92.90
18948;DHT22;9607;51.600;7.558;2023-04-25T11:42:30;9.70;90.70
18948;DHT22;9607;51.600;7.558;2023-04-25T11:44:57;10.00;90.00
18948;DHT22;9607;51.600;7.558;2023-04-25T11:47:29;10.20;88.00
18948;DHT22;9607;51.600;7.558;2023-04-25T11:49:58;10.20;93.20
18948;DHT22;9607;51.600;7.558;2023-04-25T11:52:36;10.30;91.70
18948;DHT22;9607;51.600;7.558;2023-04-25T11:55:05;10.50;90.20
18948;DHT22;9607;51.600;7.558;2023-04-25T11:57:32;10.80;85.60
18948;DHT22;9607;51.600;7.558;2023-04-25T12:00:09;11.00;82.70
18948;DHT22;9607;51.600;7.558;2023-04-25T12:02:40;11.10;80.80
18948;DHT22;9607;51.600;7.558;2023-04-25T12:05:07;11.20;77.60
18948;DHT22;9607;51.600;7.558;2023-04-25T12:07:35;11.30;76.00
18948;DHT22;9607;51.600;7.558;2023-04-25T12:10:05;11.50;76.10
18948;DHT22;9607;51.600;7.558;2023-04-25T12:12:33;11.90;76.00
18948;DHT22;9607;51.600;7.558;2023-04-25T12:15:09;12.40;77.10
18948;DHT22;9607;51.600;7.558;2023-04-25T12:17:37;12.90;76.00
18948;DHT22;9607;51.600;7.558;2023-04-25T12:20:09;13.30;71.30
18948;DHT22;9607;51.600;7.558;2023-04-25T12:22:36;13.30;66.60
18948;DHT22;9607;51.600;7.558;2023-04-25T12:25:04;13.10;64.50
18948;DHT22;9607;51.600;7.558;2023-04-25T12:27:31;12.90;66.20
18948;DHT22;9607;51.600;7.558;2023-04-25T12:29:59;12.80;67.30
18948;DHT22;9607;51.600;7.558;2023-04-25T12:32:26;12.90;68.70
18948;DHT22;9607;51.600;7.558;2023-04-25T12:34:54;13.00;67.20
18948;DHT22;9607;51.600;7.558;2023-04-25T12:37:21;12.90;66.90
18948;DHT22;9607;51.600;7.558;2023-04-25T12:39:48;12.70;68.70
18948;DHT22;9607;51.600;7.558;2023-04-25T12:42:14;12.60;66.00
18948;DHT22;9607;51.600;7.558;2023-04-25T12:44:41;12.30;65.10
18948;DHT22;9607;51.600;7.558;2023-04-25T12:47:08;12.00;70.00
18948;DHT22;9607;51.600;7.558;2023-04-25T12:49:35;11.80;69.00
18948;DHT22;9607;51.600;7.558;2023-04-25T12:52:04;11.80;74.60
18948;DHT22;9607;51.600;7.558;2023-04-25T12:54:32;11.90;82.60
18948;DHT22;9607;51.600;7.558;2023-04-25T12:57:00;11.60;90.20
18948;DHT22;9607;51.600;7.558;2023-04-25T12:59:28;11.50;91.60
18948;DHT22;9607;51.600;7.558;2023-04-25T13:01:55;11.30;93.70
18948;DHT22;9607;51.600;7.558;2023-04-25T13:04:22;11.40;94.50
18948;DHT22;9607;51.600;7.558;2023-04-25T13:06:48;11.60;95.20
18948;DHT22;9607;51.600;7.558;2023-04-25T13:09:17;12.10;94.80
18948;DHT22;9607;51.600;7.558;2023-04-25T13:11:43;12.40;93.90
18948;DHT22;9607;51.600;7.558;2023-04-25T13:14:11;13.50;93.10
18948;DHT22;9607;51.600;7.558;2023-04-25T13:16:38;14.80;86.30
18948;DHT22;9607;51.600;7.558;2023-04-25T13:19:05;15.70;83.80
18948;DHT22;9607;51.600;7.558;2023-04-25T13:21:33;16.60;74.00
18948;DHT22;9607;51.600;7.558;2023-04-25T13:24:00;17.40;65.30
18948;DHT22;9607;51.600;7.558;2023-04-25T13:26:28;17.50;60.60
18948;DHT22;9607;51.600;7.558;2023-04-25T13:28:55;17.00;58.90
18948;DHT22;9607;51.600;7.558;2023-04-25T13:31:22;16.80;62.30
18948;DHT22;9607;51.600;7.558;2023-04-25T13:33:50;17.00;60.50
18948;DHT22;9607;51.600;7.558;2023-04-25T13:36:17;17.00;58.40
18948;DHT22;9607;51.600;7.558;2023-04-25T13:38:43;16.60;57.80
18948;DHT22;9607;51.600;7.558;2023-04-25T13:41:12;15.60;58.60
18948;DHT22;9607;51.600;7.558;2023-04-25T13:43:45;14.70;60.10
18948;DHT22;9607;51.600;7.558;2023-04-25T13:46:13;13.70;66.70
18948;DHT22;9607;51.600;7.558;2023-04-25T13:48:41;12.70;72.90
18948;DHT22;9607;51.600;7.558;2023-04-25T13:51:13;11.50;79.60
18948;DHT22;9607;51.600;7.558;2023-04-25T13:53:40;10.70;89.40
18948;DHT22;9607;51.600;7.558;2023-04-25T13:56:07;10.20;95.60
18948;DHT22;9607;51.600;7.558;2023-04-25T13:58:34;9.90;99.90
18948;DHT22;9607;51.600;7.558;2023-04-25T14:01:02;9.60;99.90
18948;DHT22;9607;51.600;7.558;2023-04-25T14:03:30;9.40;99.70
18948;DHT22;9607;51.600;7.558;2023-04-25T14:05:57;9.40;99.90
18948;DHT22;9607;51.600;7.558;2023-04-25T14:08:24;9.50;99.90
18948;DHT22;9607;51.600;7.558;2023-04-25T14:10:51;9.80;99.90
18948;DHT22;9607;51.600;7.558;2023-04-25T14:13:18;10.30;96.90
18948;DHT22;9607;51.600;7.558;2023-04-25T14:15:45;10.90;96.80
18948;DHT22;9607;51.600;7.558;2023-04-25T14:18:13;11.50;92.80
18948;DHT22;9607;51.600;7.558;2023-04-25T14:20:40;12.30;90.90
18948;DHT22;9607;51.600;7.558;2023-04-25T14:23:07;13.10;85.30
18948;DHT22;9607;51.600;7.558;2023-04-25T14:25:34;14.00;80.70
18948;DHT22;9607;51.600;7.558;2023-04-25T14:28:01;15.00;74.60
18948;DHT22;9607;51.600;7.558;2023-04-25T14:30:28;15.20;64.70
18948;DHT22;9607;51.600;7.558;2023-04-25T14:32:55;14.70;62.90
18948;DHT22;9607;51.600;7.558;2023-04-25T14:35:23;14.30;63.70
18948;DHT22;9607;51.600;7.558;2023-04-25T14:37:49;14.20;64.80
18948;DHT22;9607;51.600;7.558;2023-04-25T14:40:16;14.80;66.60
18948;DHT22;9607;51.600;7.558;2023-04-25T14:42:43;15.50;61.40
18948;DHT22;9607;51.600;7.558;2023-04-25T14:45:11;16.40;59.70
18948;DHT22;9607;51.600;7.558;2023-04-25T14:47:38;17.60;56.60
18948;DHT22;9607;51.600;7.558;2023-04-25T14:50:06;18.80;52.30
18948;DHT22;9607;51.600;7.558;2023-04-25T14:52:35;18.70;49.80
18948;DHT22;9607;51.600;7.558;2023-04-25T14:55:03;17.50;53.30
18948;DHT22;9607;51.600;7.558;2023-04-25T14:57:30;15.90;58.80
18948;DHT22;9607;51.600;7.558;2023-04-25T14:59:58;14.30;67.00
18948;DHT22;9607;51.600;7.558;2023-04-25T15:02:25;13.10;78.30
18948;DHT22;9607;51.600;7.558;2023-04-25T15:04:53;11.90;91.30
18948;DHT22;9607;51.600;7.558;2023-04-25T15:07:20;11.20;96.50
18948;DHT22;9607;51.600;7.558;2023-04-25T15:09:48;10.80;99.90
18948;DHT22;9607;51.600;7.558;2023-04-25T15:12:15;10.30;99.90
18948;DHT22;9607;51.600;7.558;2023-04-25T15:14:42;10.00;99.90
18948;DHT22;9607;51.600;7.558;2023-04-25T15:17:09;10.00;99.90
18948;DHT22;9607;51.600;7.558;2023-04-25T15:19:38;10.00;99.90
18948;DHT22;9607;51.600;7.558;2023-04-25T15:22:05;10.00;99.90
18948;DHT22;9607;51.600;7.558;2023-04-25T15:24:32;10.00;99.90
18948;DHT22;9607;51.600;7.558;2023-04-25T15:27:00;10.10;99.40
18948;DHT22;9607;51.600;7.558;2023-04-25T15:29:28;10.20;99.20
18948;DHT22;9607;51.600;7.558;2023-04-25T15:31:55;10.50;98.40
18948;DHT22;9607;51.600;7.558;2023-04-25T15:34:22;10.70;95.00
18948;DHT22;9607;51.600;7.558;2023-04-25T15:36:49;10.90;95.10
18948;DHT22;9607;51.600;7.558;2023-04-25T15:39:15;11.30;95.30
18948;DHT22;9607;51.600;7.558;2023-04-25T15:41:43;11.80;93.40
18948;DHT22;9607;51.600;7.558;2023-04-25T15:44:11;13.20;93.30
18948;DHT22;9607;51.600;7.558;2023-04-25T15:46:38;13.60;78.40
18948;DHT22;9607;51.600;7.558;2023-04-25T15:49:04;13.10;79.60
18948;DHT22;9607;51.600;7.558;2023-04-25T15:51:31;12.40;84.80
18948;DHT22;9607;51.600;7.558;2023-04-25T15:54:00;11.90;88.60
18948;DHT22;9607;51.600;7.558;2023-04-25T15:56:28;11.40;88.10
18948;DHT22;9607;51.600;7.558;2023-04-25T15:58:55;10.90;91.10